sensor_id;sensor_type;location;lat;lon;timestamp;P1;durP1;ratioP1;P2;durP2;ratioP2
11671;SDS011;5892;43.412;24.612;2023-02-28T00:00:50;21.47;;;17.20;;
11671;SDS011;5892;43.412;24.612;2023-02-28T00:03:17;20.70;;;16.73;;
11671;SDS011;5892;43.412;24.612;2023-02-28T00:05:45;19.93;;;16.83;;
11671;SDS011;5892;43.412;24.612;2023-02-28T00:08:12;21.23;;;17.10;;
11671;SDS011;5892;43.412;24.612;2023-02-28T00:10:40;20.90;;;16.93;;
11671;SDS011;5892;43.412;24.612;2023-02-28T00:13:06;22.03;;;17.30;;
11671;SDS011;5892;43.412;24.612;2023-02-28T00:15:34;20.97;;;17.50;;
11671;SDS011;5892;43.412;24.612;2023-02-28T00:18:01;20.70;;;17.20;;
11671;SDS011;5892;43.412;24.612;2023-02-28T00:20:29;23.23;;;17.20;;
11671;SDS011;5892;43.412;24.612;2023-02-28T00:22:57;22.20;;;17.03;;
11671;SDS011;5892;43.412;24.612;2023-02-28T00:25:25;22.50;;;18.20;;
11671;SDS011;5892;43.412;24.612;2023-02-28T00:27:52;21.23;;;17.57;;
11671;SDS011;5892;43.412;24.612;2023-02-28T00:30:19;24.30;;;17.77;;
11671;SDS011;5892;43.412;24.612;2023-02-28T00:32:48;23.17;;;18.53;;
11671;SDS011;5892;43.412;24.612;2023-02-28T00:35:16;23.77;;;18.03;;
11671;SDS011;5892;43.412;24.612;2023-02-28T00:37:43;22.17;;;17.40;;
11671;SDS011;5892;43.412;24.612;2023-02-28T00:40:11;21.30;;;16.73;;
11671;SDS011;5892;43.412;24.612;2023-02-28T00:42:38;24.00;;;18.17;;
11671;SDS011;5892;43.412;24.612;2023-02-28T00:45:06;22.80;;;17.37;;
11671;SDS011;5892;43.412;24.612;2023-02-28T00:47:34;21.87;;;18.37;;
11671;SDS011;5892;43.412;24.612;2023-02-28T00:50:01;22.80;;;19.17;;
11671;SDS011;5892;43.412;24.612;2023-02-28T00:52:28;21.00;;;17.20;;
11671;SDS011;5892;43.412;24.612;2023-02-28T00:54:55;23.23;;;18.23;;
11671;SDS011;5892;43.412;24.612;2023-02-28T00:57:23;25.40;;;17.87;;
11671;SDS011;5892;43.412;24.612;2023-02-28T00:59:50;22.40;;;17.87;;
11671;SDS011;5892;43.412;24.612;2023-02-28T01:02:19;20.53;;;17.00;;
11671;SDS011;5892;43.412;24.612;2023-02-28T01:04:46;22.47;;;17.20;;
11671;SDS011;5892;43.412;24.612;2023-02-28T01:07:13;24.00;;;17.60;;
11671;SDS011;5892;43.412;24.612;2023-02-28T01:09:40;22.47;;;17.93;;
11671;SDS011;5892;43.412;24.612;2023-02-28T01:12:07;23.43;;;18.63;;
11671;SDS011;5892;43.412;24.612;2023-02-28T01:14:36;21.90;;;18.50;;
11671;SDS011;5892;43.412;24.612;2023-02-28T01:17:03;23.20;;;18.70;;
11671;SDS011;5892;43.412;24.612;2023-02-28T01:19:30;26.90;;;19.93;;
11671;SDS011;5892;43.412;24.612;2023-02-28T01:21:59;28.50;;;20.97;;
11671;SDS011;5892;43.412;24.612;2023-02-28T01:24:27;25.70;;;19.67;;
11671;SDS011;5892;43.412;24.612;2023-02-28T01:26:54;30.00;;;21.43;;
11671;SDS011;5892;43.412;24.612;2023-02-28T01:29:21;29.13;;;20.80;;
11671;SDS011;5892;43.412;24.612;2023-02-28T01:31:49;29.27;;;20.80;;
11671;SDS011;5892;43.412;24.612;2023-02-28T01:34:16;25.97;;;20.20;;
11671;SDS011;5892;43.412;24.612;2023-02-28T01:36:44;30.17;;;21.00;;
11671;SDS011;5892;43.412;24.612;2023-02-28T01:39:11;29.03;;;20.70;;
11671;SDS011;5892;43.412;24.612;2023-02-28T01:41:39;28.67;;;20.93;;
11671;SDS011;5892;43.412;24.612;2023-02-28T01:44:07;28.60;;;19.87;;
11671;SDS011;5892;43.412;24.612;2023-02-28T01:46:55;29.10;;;20.30;;
11671;SDS011;5892;43.412;24.612;2023-02-28T01:49:22;29.83;;;21.17;;
11671;SDS011;5892;43.412;24.612;2023-02-28T01:51:49;30.13;;;21.37;;
11671;SDS011;5892;43.412;24.612;2023-02-28T01:54:20;40.90;;;20.73;;
11671;SDS011;5892;43.412;24.612;2023-02-28T01:56:51;39.17;;;20.17;;
11671;SDS011;5892;43.412;24.612;2023-02-28T01:59:24;90.50;;;20.00;;
11671;SDS011;5892;43.412;24.612;2023-02-28T02:01:57;142.63;;;21.67;;
11671;SDS011;5892;43.412;24.612;2023-02-28T02:04:26;56.27;;;20.60;;
11671;SDS011;5892;43.412;24.612;2023-02-28T02:06:58;24.63;;;17.27;;
11671;SDS011;5892;43.412;24.612;2023-02-28T02:09:26;26.20;;;16.97;;
11671;SDS011;5892;43.412;24.612;2023-02-28T02:11:52;22.83;;;17.37;;
11671;SDS011;5892;43.412;24.612;2023-02-28T02:14:33;23.93;;;17.40;;
11671;SDS011;5892;43.412;24.612;2023-02-28T02:17:15;20.80;;;15.80;;
11671;SDS011;5892;43.412;24.612;2023-02-28T02:22:53;22.10;;;15.50;;
11671;SDS011;5892;43.412;24.612;2023-02-28T02:25:35;22.00;;;16.60;;
11671;SDS011;5892;43.412;24.612;2023-02-28T02:34:09;20.07;;;15.20;;
11671;SDS011;5892;43.412;24.612;2023-02-28T02:36:59;16.27;;;12.17;;
11671;SDS011;5892;43.412;24.612;2023-02-28T02:39:36;17.40;;;14.57;;
11671;SDS011;5892;43.412;24.612;2023-02-28T02:42:12;18.33;;;13.60;;
11671;SDS011;5892;43.412;24.612;2023-02-28T02:44:44;12.73;;;11.23;;
11671;SDS011;5892;43.412;24.612;2023-02-28T02:47:15;13.90;;;10.67;;
11671;SDS011;5892;43.412;24.612;2023-02-28T02:49:47;12.70;;;11.13;;
11671;SDS011;5892;43.412;24.612;2023-02-28T02:52:18;12.80;;;10.90;;
11671;SDS011;5892;43.412;24.612;2023-02-28T02:54:48;11.73;;;9.63;;
11671;SDS011;5892;43.412;24.612;2023-02-28T02:57:21;13.33;;;9.90;;
11671;SDS011;5892;43.412;24.612;2023-02-28T02:59:51;14.77;;;11.77;;
11671;SDS011;5892;43.412;24.612;2023-02-28T03:02:21;11.73;;;9.03;;
11671;SDS011;5892;43.412;24.612;2023-02-28T03:04:53;10.93;;;9.80;;
11671;SDS011;5892;43.412;24.612;2023-02-28T03:07:26;10.93;;;9.73;;
11671;SDS011;5892;43.412;24.612;2023-02-28T03:09:53;12.60;;;10.40;;
11671;SDS011;5892;43.412;24.612;2023-02-28T03:12:22;11.77;;;10.23;;
11671;SDS011;5892;43.412;24.612;2023-02-28T03:14:55;13.73;;;10.97;;
11671;SDS011;5892;43.412;24.612;2023-02-28T03:17:31;14.40;;;11.47;;
11671;SDS011;5892;43.412;24.612;2023-02-28T03:20:15;14.07;;;12.57;;
11671;SDS011;5892;43.412;24.612;2023-02-28T03:22:51;14.83;;;11.43;;
11671;SDS011;5892;43.412;24.612;2023-02-28T03:25:28;11.87;;;10.23;;
11671;SDS011;5892;43.412;24.612;2023-02-28T03:28:03;14.77;;;13.10;;
11671;SDS011;5892;43.412;24.612;2023-02-28T03:30:36;15.53;;;13.93;;
11671;SDS011;5892;43.412;24.612;2023-02-28T03:33:10;13.30;;;11.73;;
11671;SDS011;5892;43.412;24.612;2023-02-28T03:35:45;14.30;;;12.80;;
11671;SDS011;5892;43.412;24.612;2023-02-28T03:38:18;15.40;;;13.47;;
11671;SDS011;5892;43.412;24.612;2023-02-28T03:40:49;14.67;;;13.17;;
11671;SDS011;5892;43.412;24.612;2023-02-28T03:43:22;14.53;;;13.03;;
11671;SDS011;5892;43.412;24.612;2023-02-28T03:45:54;14.20;;;12.70;;
11671;SDS011;5892;43.412;24.612;2023-02-28T03:48:22;15.00;;;13.40;;
11671;SDS011;5892;43.412;24.612;2023-02-28T03:50:55;14.87;;;12.70;;
11671;SDS011;5892;43.412;24.612;2023-02-28T03:53:26;13.77;;;12.27;;
11671;SDS011;5892;43.412;24.612;2023-02-28T03:55:57;12.53;;;10.07;;
11671;SDS011;5892;43.412;24.612;2023-02-28T03:58:29;15.37;;;12.80;;
11671;SDS011;5892;43.412;24.612;2023-02-28T04:01:03;14.67;;;11.73;;
11671;SDS011;5892;43.412;24.612;2023-02-28T04:03:36;14.73;;;13.30;;
11671;SDS011;5892;43.412;24.612;2023-02-28T04:06:07;14.40;;;12.90;;
11671;SDS011;5892;43.412;24.612;2023-02-28T04:08:39;15.07;;;13.07;;
11671;SDS011;5892;43.412;24.612;2023-02-28T04:11:07;15.07;;;11.50;;
11671;SDS011;5892;43.412;24.612;2023-02-28T04:13:43;13.47;;;12.07;;
11671;SDS011;5892;43.412;24.612;2023-02-28T04:16:10;13.33;;;11.93;;
11671;SDS011;5892;43.412;24.612;2023-02-28T04:18:38;13.97;;;11.33;;
11671;SDS011;5892;43.412;24.612;2023-02-28T04:21:06;13.60;;;12.20;;
11671;SDS011;5892;43.412;24.612;2023-02-28T04:23:33;12.87;;;11.57;;
11671;SDS011;5892;43.412;24.612;2023-02-28T04:26:00;14.90;;;13.30;;
11671;SDS011;5892;43.412;24.612;2023-02-28T04:28:27;14.17;;;12.70;;
11671;SDS011;5892;43.412;24.612;2023-02-28T04:30:54;13.87;;;12.37;;
11671;SDS011;5892;43.412;24.612;2023-02-28T04:33:21;13.83;;;12.43;;
11671;SDS011;5892;43.412;24.612;2023-02-28T04:35:50;13.27;;;11.87;;
11671;SDS011;5892;43.412;24.612;2023-02-28T04:38:26;13.73;;;12.30;;
11671;SDS011;5892;43.412;24.612;2023-02-28T04:40:53;13.97;;;12.53;;
11671;SDS011;5892;43.412;24.612;2023-02-28T04:43:20;13.83;;;12.17;;
11671;SDS011;5892;43.412;24.612;2023-02-28T04:45:46;13.87;;;12.30;;
11671;SDS011;5892;43.412;24.612;2023-02-28T04:48:13;13.53;;;12.13;;
11671;SDS011;5892;43.412;24.612;2023-02-28T04:50:40;15.70;;;14.10;;
11671;SDS011;5892;43.412;24.612;2023-02-28T04:53:07;13.40;;;12.00;;
11671;SDS011;5892;43.412;24.612;2023-02-28T04:55:35;12.27;;;10.80;;
11671;SDS011;5892;43.412;24.612;2023-02-28T04:58:05;13.20;;;11.80;;
11671;SDS011;5892;43.412;24.612;2023-02-28T05:00:32;15.00;;;11.20;;
11671;SDS011;5892;43.412;24.612;2023-02-28T05:02:58;12.10;;;10.87;;
11671;SDS011;5892;43.412;24.612;2023-02-28T05:05:25;11.67;;;10.47;;
11671;SDS011;5892;43.412;24.612;2023-02-28T05:07:52;13.57;;;12.03;;
11671;SDS011;5892;43.412;24.612;2023-02-28T05:10:20;14.03;;;12.57;;
11671;SDS011;5892;43.412;24.612;2023-02-28T05:12:49;13.53;;;12.13;;
11671;SDS011;5892;43.412;24.612;2023-02-28T05:15:16;14.73;;;12.77;;
11671;SDS011;5892;43.412;24.612;2023-02-28T05:17:43;16.23;;;13.13;;
11671;SDS011;5892;43.412;24.612;2023-02-28T05:20:11;15.87;;;13.57;;
11671;SDS011;5892;43.412;24.612;2023-02-28T05:22:39;15.67;;;13.57;;
11671;SDS011;5892;43.412;24.612;2023-02-28T05:25:08;14.93;;;13.33;;
11671;SDS011;5892;43.412;24.612;2023-02-28T05:27:38;14.50;;;12.93;;
11671;SDS011;5892;43.412;24.612;2023-02-28T05:30:07;12.73;;;11.07;;
11671;SDS011;5892;43.412;24.612;2023-02-28T05:32:36;15.90;;;13.13;;
11671;SDS011;5892;43.412;24.612;2023-02-28T05:35:04;15.23;;;13.40;;
11671;SDS011;5892;43.412;24.612;2023-02-28T05:37:31;15.47;;;13.37;;
11671;SDS011;5892;43.412;24.612;2023-02-28T05:39:58;15.63;;;13.57;;
11671;SDS011;5892;43.412;24.612;2023-02-28T05:42:25;14.60;;;12.87;;
11671;SDS011;5892;43.412;24.612;2023-02-28T05:44:52;15.57;;;13.67;;
11671;SDS011;5892;43.412;24.612;2023-02-28T05:47:21;16.37;;;13.93;;
11671;SDS011;5892;43.412;24.612;2023-02-28T05:49:47;15.50;;;13.90;;
11671;SDS011;5892;43.412;24.612;2023-02-28T05:52:15;16.77;;;14.97;;
11671;SDS011;5892;43.412;24.612;2023-02-28T05:54:42;16.27;;;13.87;;
11671;SDS011;5892;43.412;24.612;2023-02-28T05:57:08;15.63;;;13.67;;
11671;SDS011;5892;43.412;24.612;2023-02-28T05:59:35;15.73;;;13.90;;
11671;SDS011;5892;43.412;24.612;2023-02-28T06:02:05;15.83;;;14.13;;
11671;SDS011;5892;43.412;24.612;2023-02-28T06:04:33;16.03;;;14.33;;
11671;SDS011;5892;43.412;24.612;2023-02-28T06:07:00;15.43;;;13.67;;
11671;SDS011;5892;43.412;24.612;2023-02-28T06:09:28;16.90;;;14.93;;
11671;SDS011;5892;43.412;24.612;2023-02-28T06:11:57;20.70;;;17.87;;
11671;SDS011;5892;43.412;24.612;2023-02-28T06:14:24;15.83;;;14.03;;
11671;SDS011;5892;43.412;24.612;2023-02-28T06:16:51;17.43;;;15.03;;
11671;SDS011;5892;43.412;24.612;2023-02-28T06:19:18;17.73;;;15.20;;
11671;SDS011;5892;43.412;24.612;2023-02-28T06:21:47;15.97;;;13.63;;
11671;SDS011;5892;43.412;24.612;2023-02-28T06:24:15;17.83;;;14.27;;
11671;SDS011;5892;43.412;24.612;2023-02-28T06:26:42;18.27;;;15.50;;
11671;SDS011;5892;43.412;24.612;2023-02-28T06:29:09;17.50;;;15.40;;
11671;SDS011;5892;43.412;24.612;2023-02-28T06:31:42;18.43;;;16.00;;
11671;SDS011;5892;43.412;24.612;2023-02-28T06:34:09;19.63;;;15.93;;
11671;SDS011;5892;43.412;24.612;2023-02-28T06:36:36;22.23;;;15.53;;
11671;SDS011;5892;43.412;24.612;2023-02-28T06:39:06;18.73;;;15.53;;
11671;SDS011;5892;43.412;24.612;2023-02-28T06:41:33;17.37;;;14.67;;
11671;SDS011;5892;43.412;24.612;2023-02-28T06:44:03;17.87;;;15.10;;
11671;SDS011;5892;43.412;24.612;2023-02-28T06:46:30;15.00;;;11.97;;
11671;SDS011;5892;43.412;24.612;2023-02-28T06:48:58;16.03;;;13.47;;
11671;SDS011;5892;43.412;24.612;2023-02-28T06:51:25;15.57;;;13.90;;
11671;SDS011;5892;43.412;24.612;2023-02-28T06:53:52;16.60;;;12.50;;
11671;SDS011;5892;43.412;24.612;2023-02-28T06:56:20;18.23;;;14.70;;
11671;SDS011;5892;43.412;24.612;2023-02-28T06:58:47;16.97;;;15.10;;
11671;SDS011;5892;43.412;24.612;2023-02-28T07:01:15;16.23;;;13.40;;
11671;SDS011;5892;43.412;24.612;2023-02-28T07:03:42;19.13;;;14.53;;
11671;SDS011;5892;43.412;24.612;2023-02-28T07:06:09;17.80;;;14.37;;
11671;SDS011;5892;43.412;24.612;2023-02-28T07:08:36;17.17;;;15.17;;
11671;SDS011;5892;43.412;24.612;2023-02-28T07:11:05;18.27;;;15.73;;
11671;SDS011;5892;43.412;24.612;2023-02-28T07:13:33;16.40;;;14.13;;
11671;SDS011;5892;43.412;24.612;2023-02-28T07:16:00;17.50;;;15.13;;
11671;SDS011;5892;43.412;24.612;2023-02-28T07:18:28;17.80;;;15.40;;
11671;SDS011;5892;43.412;24.612;2023-02-28T07:20:56;17.73;;;14.97;;
11671;SDS011;5892;43.412;24.612;2023-02-28T07:23:23;18.40;;;13.27;;
11671;SDS011;5892;43.412;24.612;2023-02-28T07:25:50;19.20;;;15.17;;
11671;SDS011;5892;43.412;24.612;2023-02-28T07:28:17;15.10;;;11.70;;
11671;SDS011;5892;43.412;24.612;2023-02-28T07:30:46;20.27;;;14.47;;
11671;SDS011;5892;43.412;24.612;2023-02-28T07:33:13;17.27;;;13.83;;
11671;SDS011;5892;43.412;24.612;2023-02-28T07:35:40;19.13;;;13.73;;
11671;SDS011;5892;43.412;24.612;2023-02-28T07:38:07;17.97;;;15.73;;
11671;SDS011;5892;43.412;24.612;2023-02-28T07:40:35;17.97;;;14.00;;
11671;SDS011;5892;43.412;24.612;2023-02-28T07:43:03;19.77;;;15.50;;
11671;SDS011;5892;43.412;24.612;2023-02-28T07:45:30;19.80;;;15.43;;
11671;SDS011;5892;43.412;24.612;2023-02-28T07:48:01;20.83;;;15.87;;
11671;SDS011;5892;43.412;24.612;2023-02-28T07:50:28;18.43;;;15.57;;
11671;SDS011;5892;43.412;24.612;2023-02-28T07:52:56;18.13;;;15.73;;
11671;SDS011;5892;43.412;24.612;2023-02-28T07:55:24;22.73;;;15.73;;
11671;SDS011;5892;43.412;24.612;2023-02-28T07:57:50;20.30;;;16.30;;
11671;SDS011;5892;43.412;24.612;2023-02-28T08:00:17;22.30;;;16.27;;
11671;SDS011;5892;43.412;24.612;2023-02-28T08:02:45;20.07;;;16.60;;
11671;SDS011;5892;43.412;24.612;2023-02-28T08:05:13;19.73;;;15.23;;
11671;SDS011;5892;43.412;24.612;2023-02-28T08:07:40;21.73;;;15.83;;
11671;SDS011;5892;43.412;24.612;2023-02-28T08:10:15;21.43;;;16.93;;
11671;SDS011;5892;43.412;24.612;2023-02-28T08:12:42;20.57;;;14.57;;
11671;SDS011;5892;43.412;24.612;2023-02-28T08:15:09;31.93;;;21.80;;
11671;SDS011;5892;43.412;24.612;2023-02-28T08:17:36;30.57;;;20.27;;
11671;SDS011;5892;43.412;24.612;2023-02-28T08:20:04;22.43;;;16.87;;
11671;SDS011;5892;43.412;24.612;2023-02-28T08:22:33;78.57;;;38.83;;
11671;SDS011;5892;43.412;24.612;2023-02-28T08:25:00;124.33;;;58.03;;
11671;SDS011;5892;43.412;24.612;2023-02-28T08:27:27;36.03;;;25.07;;
11671;SDS011;5892;43.412;24.612;2023-02-28T08:29:54;22.73;;;17.07;;
11671;SDS011;5892;43.412;24.612;2023-02-28T08:32:20;21.33;;;16.57;;
11671;SDS011;5892;43.412;24.612;2023-02-28T08:34:47;24.23;;;18.07;;
11671;SDS011;5892;43.412;24.612;2023-02-28T08:37:14;24.17;;;18.67;;
11671;SDS011;5892;43.412;24.612;2023-02-28T08:39:43;34.10;;;21.97;;
11671;SDS011;5892;43.412;24.612;2023-02-28T08:42:10;31.43;;;22.27;;
11671;SDS011;5892;43.412;24.612;2023-02-28T08:44:49;20.00;;;14.93;;
11671;SDS011;5892;43.412;24.612;2023-02-28T08:47:16;26.57;;;18.00;;
11671;SDS011;5892;43.412;24.612;2023-02-28T08:49:43;25.30;;;19.33;;
11671;SDS011;5892;43.412;24.612;2023-02-28T08:52:33;24.73;;;17.83;;
11671;SDS011;5892;43.412;24.612;2023-02-28T08:55:17;20.93;;;15.53;;
11671;SDS011;5892;43.412;24.612;2023-02-28T08:57:44;26.00;;;18.53;;
11671;SDS011;5892;43.412;24.612;2023-02-28T09:00:20;24.53;;;16.63;;
11671;SDS011;5892;43.412;24.612;2023-02-28T09:02:48;23.97;;;17.47;;
11671;SDS011;5892;43.412;24.612;2023-02-28T09:05:15;22.83;;;15.90;;
11671;SDS011;5892;43.412;24.612;2023-02-28T09:07:42;21.57;;;17.47;;
11671;SDS011;5892;43.412;24.612;2023-02-28T09:10:09;21.70;;;16.87;;
11671;SDS011;5892;43.412;24.612;2023-02-28T09:12:38;24.13;;;17.70;;
11671;SDS011;5892;43.412;24.612;2023-02-28T09:15:06;24.23;;;17.50;;
11671;SDS011;5892;43.412;24.612;2023-02-28T09:17:34;20.80;;;15.50;;
11671;SDS011;5892;43.412;24.612;2023-02-28T09:20:01;19.80;;;15.30;;
11671;SDS011;5892;43.412;24.612;2023-02-28T09:22:28;20.77;;;14.20;;
11671;SDS011;5892;43.412;24.612;2023-02-28T09:24:55;24.43;;;16.00;;
11671;SDS011;5892;43.412;24.612;2023-02-28T09:27:22;22.50;;;17.33;;
11671;SDS011;5892;43.412;24.612;2023-02-28T09:30:11;22.63;;;16.70;;
11671;SDS011;5892;43.412;24.612;2023-02-28T09:32:39;22.77;;;17.30;;
11671;SDS011;5892;43.412;24.612;2023-02-28T09:35:06;22.23;;;17.60;;
11671;SDS011;5892;43.412;24.612;2023-02-28T09:38:08;22.57;;;17.07;;
11671;SDS011;5892;43.412;24.612;2023-02-28T09:40:36;22.77;;;17.63;;
11671;SDS011;5892;43.412;24.612;2023-02-28T09:43:05;21.40;;;14.80;;
11671;SDS011;5892;43.412;24.612;2023-02-28T09:45:39;26.97;;;18.30;;
11671;SDS011;5892;43.412;24.612;2023-02-28T09:48:10;23.10;;;16.40;;
11671;SDS011;5892;43.412;24.612;2023-02-28T09:50:42;20.67;;;15.63;;
11671;SDS011;5892;43.412;24.612;2023-02-28T09:53:14;22.37;;;16.10;;
11671;SDS011;5892;43.412;24.612;2023-02-28T09:55:54;23.97;;;18.00;;
11671;SDS011;5892;43.412;24.612;2023-02-28T09:58:26;20.93;;;16.03;;
11671;SDS011;5892;43.412;24.612;2023-02-28T10:01:00;21.40;;;15.70;;
11671;SDS011;5892;43.412;24.612;2023-02-28T10:03:35;21.90;;;15.50;;
11671;SDS011;5892;43.412;24.612;2023-02-28T10:06:07;21.60;;;15.80;;
11671;SDS011;5892;43.412;24.612;2023-02-28T10:08:40;21.80;;;15.73;;
11671;SDS011;5892;43.412;24.612;2023-02-28T10:11:12;23.53;;;17.37;;
11671;SDS011;5892;43.412;24.612;2023-02-28T10:13:46;25.97;;;17.20;;
11671;SDS011;5892;43.412;24.612;2023-02-28T10:16:21;23.93;;;16.27;;
11671;SDS011;5892;43.412;24.612;2023-02-28T10:18:54;22.03;;;16.03;;
11671;SDS011;5892;43.412;24.612;2023-02-28T10:21:26;27.07;;;19.33;;
11671;SDS011;5892;43.412;24.612;2023-02-28T10:27:14;23.23;;;16.77;;
11671;SDS011;5892;43.412;24.612;2023-02-28T10:29:44;26.30;;;18.87;;
11671;SDS011;5892;43.412;24.612;2023-02-28T10:32:15;22.03;;;17.43;;
11671;SDS011;5892;43.412;24.612;2023-02-28T10:34:45;26.50;;;18.40;;
11671;SDS011;5892;43.412;24.612;2023-02-28T10:37:17;27.97;;;18.97;;
11671;SDS011;5892;43.412;24.612;2023-02-28T10:39:46;24.50;;;17.53;;
11671;SDS011;5892;43.412;24.612;2023-02-28T10:42:21;17.47;;;14.37;;
11671;SDS011;5892;43.412;24.612;2023-02-28T10:45:03;19.57;;;14.87;;
11671;SDS011;5892;43.412;24.612;2023-02-28T10:47:34;22.63;;;16.73;;
11671;SDS011;5892;43.412;24.612;2023-02-28T10:50:05;25.83;;;18.77;;
11671;SDS011;5892;43.412;24.612;2023-02-28T10:52:33;22.93;;;16.77;;
11671;SDS011;5892;43.412;24.612;2023-02-28T10:58:27;29.30;;;19.13;;
11671;SDS011;5892;43.412;24.612;2023-02-28T11:00:56;21.83;;;16.87;;
11671;SDS011;5892;43.412;24.612;2023-02-28T11:08:53;21.37;;;15.97;;
11671;SDS011;5892;43.412;24.612;2023-02-28T11:11:22;22.17;;;15.07;;
11671;SDS011;5892;43.412;24.612;2023-02-28T11:13:52;22.50;;;17.27;;
11671;SDS011;5892;43.412;24.612;2023-02-28T11:16:21;23.83;;;18.30;;
11671;SDS011;5892;43.412;24.612;2023-02-28T11:18:51;33.10;;;19.47;;
11671;SDS011;5892;43.412;24.612;2023-02-28T11:21:22;21.17;;;16.60;;
11671;SDS011;5892;43.412;24.612;2023-02-28T11:23:52;27.93;;;20.10;;
11671;SDS011;5892;43.412;24.612;2023-02-28T11:26:35;21.73;;;16.17;;
11671;SDS011;5892;43.412;24.612;2023-02-28T11:29:08;20.67;;;15.53;;
11671;SDS011;5892;43.412;24.612;2023-02-28T11:31:45;21.87;;;16.50;;
11671;SDS011;5892;43.412;24.612;2023-02-28T11:34:30;25.83;;;17.13;;
11671;SDS011;5892;43.412;24.612;2023-02-28T11:36:58;23.57;;;16.20;;
11671;SDS011;5892;43.412;24.612;2023-02-28T11:39:30;24.70;;;17.47;;
11671;SDS011;5892;43.412;24.612;2023-02-28T11:45:07;21.70;;;15.43;;
11671;SDS011;5892;43.412;24.612;2023-02-28T11:47:45;24.77;;;18.87;;
11671;SDS011;5892;43.412;24.612;2023-02-28T11:50:20;21.90;;;15.83;;
11671;SDS011;5892;43.412;24.612;2023-02-28T11:52:54;26.77;;;17.27;;
11671;SDS011;5892;43.412;24.612;2023-02-28T11:55:45;21.80;;;14.80;;
11671;SDS011;5892;43.412;24.612;2023-02-28T11:58:23;21.00;;;16.23;;
11671;SDS011;5892;43.412;24.612;2023-02-28T12:01:11;22.43;;;17.57;;
11671;SDS011;5892;43.412;24.612;2023-02-28T12:03:49;25.43;;;17.97;;
11671;SDS011;5892;43.412;24.612;2023-02-28T12:06:28;24.40;;;17.60;;
11671;SDS011;5892;43.412;24.612;2023-02-28T12:09:10;22.77;;;16.87;;
11671;SDS011;5892;43.412;24.612;2023-02-28T12:12:06;22.23;;;16.60;;
11671;SDS011;5892;43.412;24.612;2023-02-28T12:14:50;25.57;;;16.87;;
11671;SDS011;5892;43.412;24.612;2023-02-28T12:18:01;25.93;;;17.93;;
11671;SDS011;5892;43.412;24.612;2023-02-28T12:20:37;26.30;;;16.83;;
11671;SDS011;5892;43.412;24.612;2023-02-28T12:26:07;23.43;;;16.53;;
11671;SDS011;5892;43.412;24.612;2023-02-28T12:28:43;23.07;;;17.13;;
11671;SDS011;5892;43.412;24.612;2023-02-28T12:31:15;23.30;;;16.03;;
11671;SDS011;5892;43.412;24.612;2023-02-28T12:33:48;23.77;;;16.00;;
11671;SDS011;5892;43.412;24.612;2023-02-28T12:36:19;24.87;;;17.67;;
11671;SDS011;5892;43.412;24.612;2023-02-28T12:38:51;23.73;;;17.07;;
11671;SDS011;5892;43.412;24.612;2023-02-28T12:41:22;21.57;;;15.03;;
11671;SDS011;5892;43.412;24.612;2023-02-28T12:43:57;25.67;;;17.00;;
11671;SDS011;5892;43.412;24.612;2023-02-28T12:46:29;22.87;;;16.83;;
11671;SDS011;5892;43.412;24.612;2023-02-28T12:49:08;22.63;;;16.77;;
11671;SDS011;5892;43.412;24.612;2023-02-28T12:51:44;26.17;;;18.80;;
11671;SDS011;5892;43.412;24.612;2023-02-28T12:54:14;24.90;;;17.23;;
11671;SDS011;5892;43.412;24.612;2023-02-28T12:56:51;27.70;;;18.73;;
11671;SDS011;5892;43.412;24.612;2023-02-28T12:59:25;24.43;;;16.80;;
11671;SDS011;5892;43.412;24.612;2023-02-28T13:02:09;21.73;;;16.93;;
11671;SDS011;5892;43.412;24.612;2023-02-28T13:05:18;25.50;;;18.13;;
11671;SDS011;5892;43.412;24.612;2023-02-28T13:11:08;28.53;;;19.80;;
11671;SDS011;5892;43.412;24.612;2023-02-28T13:13:56;23.20;;;17.70;;
11671;SDS011;5892;43.412;24.612;2023-02-28T13:16:24;26.07;;;18.00;;
11671;SDS011;5892;43.412;24.612;2023-02-28T13:18:51;21.33;;;16.07;;
11671;SDS011;5892;43.412;24.612;2023-02-28T13:21:23;22.50;;;15.87;;
11671;SDS011;5892;43.412;24.612;2023-02-28T13:23:59;20.57;;;15.53;;
11671;SDS011;5892;43.412;24.612;2023-02-28T13:29:36;24.17;;;16.30;;
11671;SDS011;5892;43.412;24.612;2023-02-28T13:35:15;20.83;;;15.63;;
11671;SDS011;5892;43.412;24.612;2023-02-28T13:38:09;21.53;;;16.73;;
11671;SDS011;5892;43.412;24.612;2023-02-28T13:40:43;21.70;;;15.73;;
11671;SDS011;5892;43.412;24.612;2023-02-28T13:43:10;23.17;;;15.67;;
11671;SDS011;5892;43.412;24.612;2023-02-28T13:45:38;23.53;;;17.00;;
11671;SDS011;5892;43.412;24.612;2023-02-28T13:48:31;24.53;;;16.90;;
11671;SDS011;5892;43.412;24.612;2023-02-28T13:50:58;23.17;;;18.17;;
11671;SDS011;5892;43.412;24.612;2023-02-28T13:53:29;23.33;;;17.77;;
11671;SDS011;5892;43.412;24.612;2023-02-28T13:56:22;25.53;;;18.50;;
11671;SDS011;5892;43.412;24.612;2023-02-28T13:58:58;18.57;;;13.10;;
11671;SDS011;5892;43.412;24.612;2023-02-28T14:01:46;25.20;;;18.80;;
11671;SDS011;5892;43.412;24.612;2023-02-28T14:04:34;23.57;;;17.70;;
11671;SDS011;5892;43.412;24.612;2023-02-28T14:07:20;23.87;;;16.60;;
11671;SDS011;5892;43.412;24.612;2023-02-28T14:09:52;25.67;;;18.13;;
11671;SDS011;5892;43.412;24.612;2023-02-28T14:15:26;21.67;;;15.37;;
11671;SDS011;5892;43.412;24.612;2023-02-28T14:18:03;23.13;;;17.07;;
11671;SDS011;5892;43.412;24.612;2023-02-28T14:20:42;24.70;;;17.50;;
11671;SDS011;5892;43.412;24.612;2023-02-28T14:23:14;23.77;;;18.40;;
11671;SDS011;5892;43.412;24.612;2023-02-28T14:25:52;23.23;;;17.03;;
11671;SDS011;5892;43.412;24.612;2023-02-28T14:28:31;22.40;;;16.73;;
11671;SDS011;5892;43.412;24.612;2023-02-28T14:31:12;22.33;;;16.27;;
11671;SDS011;5892;43.412;24.612;2023-02-28T14:33:51;23.23;;;16.63;;
11671;SDS011;5892;43.412;24.612;2023-02-28T14:36:30;30.90;;;23.90;;
11671;SDS011;5892;43.412;24.612;2023-02-28T14:38:59;24.77;;;18.00;;
11671;SDS011;5892;43.412;24.612;2023-02-28T14:41:32;20.40;;;15.57;;
11671;SDS011;5892;43.412;24.612;2023-02-28T14:44:02;25.87;;;19.20;;
11671;SDS011;5892;43.412;24.612;2023-02-28T14:46:39;21.17;;;16.10;;
11671;SDS011;5892;43.412;24.612;2023-02-28T14:49:12;21.17;;;15.73;;
11671;SDS011;5892;43.412;24.612;2023-02-28T14:51:42;22.20;;;15.97;;
11671;SDS011;5892;43.412;24.612;2023-02-28T14:54:12;19.57;;;14.73;;
11671;SDS011;5892;43.412;24.612;2023-02-28T14:56:40;20.13;;;15.40;;
11671;SDS011;5892;43.412;24.612;2023-02-28T14:59:22;19.00;;;14.93;;
11671;SDS011;5892;43.412;24.612;2023-02-28T15:01:52;23.00;;;16.70;;
11671;SDS011;5892;43.412;24.612;2023-02-28T15:04:35;18.00;;;13.63;;
11671;SDS011;5892;43.412;24.612;2023-02-28T15:07:09;17.73;;;13.73;;
11671;SDS011;5892;43.412;24.612;2023-02-28T15:09:36;19.77;;;14.57;;
11671;SDS011;5892;43.412;24.612;2023-02-28T15:12:03;17.70;;;13.57;;
11671;SDS011;5892;43.412;24.612;2023-02-28T15:14:31;19.43;;;14.77;;
11671;SDS011;5892;43.412;24.612;2023-02-28T15:16:59;18.73;;;14.27;;
11671;SDS011;5892;43.412;24.612;2023-02-28T15:19:32;19.73;;;12.90;;
11671;SDS011;5892;43.412;24.612;2023-02-28T15:22:10;20.50;;;15.17;;
11671;SDS011;5892;43.412;24.612;2023-02-28T15:24:42;24.23;;;18.10;;